Time;durP1;ratioP1;P1;durP2;ratioP2;P2;SDS_P1;SDS_P2;PMS_P1;PMS_P2;Temp;Humidity;BMP_temperature;BMP_pressure;BME280_temperature;BME280_humidity;BME280_pressure;Samples;Min_cycle;Max_cycle;Signal;HPM_P1;HPM_P2
2021/04/18 00:00:16;;;;;;;18.82;8.40;;;;;;;8.49;58.47;101452.84;1729104;81;25586;-56
2021/04/18 00:02:50;;;;;;;20.15;7.92;;;;;;;8.50;58.91;101447.86;1729663;82;26128;-56
2021/04/18 00:05:25;;;;;;;14.55;7.70;;;;;;;8.52;59.46;101448.13;1729150;82;25725;-57
2021/04/18 00:08:01;;;;;;;12.23;7.65;;;;;;;8.56;59.18;101446.12;1730363;81;25445;-57
2021/04/18 00:10:24;;;;;;;17.02;7.75;;;;;;;8.60;59.25;101440.90;1728854;82;25703;-57
2021/04/18 00:12:52;;;;;;;15.38;7.03;;;;;;;8.67;59.48;101434.13;1728883;82;25710;-57
2021/04/18 00:15:20;;;;;;;13.43;7.35;;;;;;;8.74;59.41;101431.89;1729890;82;27543;-57
2021/04/18 00:17:49;;;;;;;13.38;7.67;;;;;;;8.80;59.53;101433.28;1729410;82;25763;-57
2021/04/18 00:20:18;;;;;;;15.38;7.15;;;;;;;8.87;59.44;101431.88;1730245;82;25650;-57
2021/04/18 00:22:47;;;;;;;11.48;6.50;;;;;;;8.90;59.48;101431.17;1730217;81;25712;-57
2021/04/18 00:25:19;;;;;;;21.02;8.33;;;;;;;8.96;59.34;101433.91;1728205;82;25772;-57
2021/04/18 00:27:49;;;;;;;14.60;7.90;;;;;;;8.99;59.85;101430.14;1730029;81;27531;-57
2021/04/18 00:30:21;;;;;;;17.27;8.85;;;;;;;8.93;59.24;101430.09;1729108;82;26086;-58
2021/04/18 00:32:50;;;;;;;11.12;6.60;;;;;;;8.94;59.26;101431.81;1729636;82;25587;-58
2021/04/18 00:35:20;;;;;;;13.43;7.10;;;;;;;8.96;59.27;101424.52;1729399;82;26515;-58
2021/04/18 00:37:49;;;;;;;12.03;7.12;;;;;;;8.98;59.07;101423.92;1730289;81;25455;-58
2021/04/18 00:40:22;;;;;;;12.73;7.17;;;;;;;8.99;58.83;101422.97;1737341;81;27519;-57
2021/04/18 00:42:52;;;;;;;12.63;7.47;;;;;;;9.00;58.94;101426.02;1741859;80;25641;-56
2021/04/18 00:45:21;;;;;;;13.55;6.80;;;;;;;8.99;58.90;101420.28;1755645;81;26506;-57
2021/04/18 00:47:53;;;;;;;11.53;7.50;;;;;;;8.99;58.83;101426.11;1755737;80;26512;-57
2021/04/18 00:50:31;;;;;;;11.05;6.35;;;;;;;8.96;58.95;101427.69;1755656;81;25728;-57
2021/04/18 00:53:04;;;;;;;15.35;7.83;;;;;;;8.86;58.79;101425.66;1755790;81;27565;-58
2021/04/18 00:55:33;;;;;;;14.73;7.70;;;;;;;8.82;58.92;101426.84;1796205;79;25523;-57
2021/04/18 00:58:02;;;;;;;17.15;7.60;;;;;;;8.80;59.21;101430.60;1728355;82;25713;-57
2021/04/18 01:00:30;;;;;;;17.50;7.50;;;;;;;8.76;59.27;101432.15;1797187;79;25685;-57
2021/04/18 01:02:59;;;;;;;11.83;7.03;;;;;;;8.75;59.27;101432.27;1728890;82;26172;-57
2021/04/18 01:05:30;;;;;;;14.10;7.10;;;;;;;8.73;59.30;101431.51;1796849;79;28428;-57
2021/04/18 01:07:58;;;;;;;8.75;6.12;;;;;;;8.71;59.23;101427.60;1728395;82;26013;-57
2021/04/18 01:10:28;;;;;;;10.75;6.50;;;;;;;8.69;59.58;101424.16;1796860;79;25432;-57
2021/04/18 01:12:55;;;;;;;9.93;6.65;;;;;;;8.70;59.51;101435.73;1728325;82;25707;-57
2021/04/18 01:15:23;;;;;;;15.25;8.70;;;;;;;8.69;59.58;101437.58;1727991;82;25750;-57
2021/04/18 01:17:51;;;;;;;17.80;10.65;;;;;;;8.69;59.38;101446.12;1727721;82;27552;-57
2021/04/18 01:20:23;;;;;;;14.98;9.50;;;;;;;8.67;59.14;101442.68;1786921;79;26100;-57
2021/04/18 01:22:53;;;;;;;16.60;8.40;;;;;;;8.68;59.03;101440.37;1717623;83;25466;-57
2021/04/18 01:25:24;;;;;;;13.35;8.13;;;;;;;8.62;59.85;101437.63;1785464;80;25765;-58
2021/04/18 01:27:57;;;;;;;;;;;;;;;8.52;59.68;101444.10;1788055;80;25694;-57
2021/04/18 01:30:29;;;;;;;16.95;9.15;;;;;;;8.35;59.71;101434.98;1786750;80;28443;-57
2021/04/18 01:33:01;;;;;;;13.70;8.35;;;;;;;8.29;59.91;101434.46;1786680;80;26152;-57
2021/04/18 01:35:30;;;;;;;13.40;9.48;;;;;;;8.31;59.96;101437.03;1786394;80;25662;-57
2021/04/18 01:37:58;;;;;;;16.07;9.58;;;;;;;8.34;60.03;101435.98;1719079;83;26455;-57
2021/04/18 01:40:28;;;;;;;12.73;9.03;;;;;;;8.36;59.99;101432.23;1701120;82;25644;-57
2021/04/18 01:42:57;;;;;;;16.27;9.13;;;;;;;8.39;59.85;101429.31;1734135;82;27479;-57
2021/04/18 01:45:27;;;;;;;15.20;9.70;;;;;;;8.40;60.33;101429.69;1738984;80;25649;-57
2021/04/18 01:47:57;;;;;;;15.65;9.83;;;;;;;8.40;59.94;101427.51;1738165;80;25692;-57
2021/04/18 01:50:25;;;;;;;18.12;9.68;;;;;;;8.45;60.75;101429.38;1738819;81;26489;-57
2021/04/18 01:52:53;;;;;;;15.50;9.33;;;;;;;8.49;61.23;101438.97;1746461;80;26176;-58
2021/04/18 01:55:21;;;;;;;15.10;8.80;;;;;;;8.53;60.78;101431.57;1758333;81;27518;-57
2021/04/18 01:57:51;;;;;;;16.55;10.25;;;;;;;8.57;60.78;101431.71;1758082;79;26096;-58
2021/04/18 02:00:22;;;;;;;16.95;10.63;;;;;;;8.61;60.64;101437.25;1755821;81;25668;-57
2021/04/18 02:02:52;;;;;;;18.05;10.53;;;;;;;8.56;60.49;101428.19;1755775;80;25480;-57
2021/04/18 02:05:22;;;;;;;22.60;10.65;;;;;;;8.45;60.55;101427.57;1755827;81;25491;-57
2021/04/18 02:07:50;;;;;;;18.52;11.05;;;;;;;8.39;60.93;101421.77;1755717;81;27608;-57
2021/04/18 02:10:19;;;;;;;21.82;11.08;;;;;;;8.38;61.09;101426.25;1755722;80;26025;-57
2021/04/18 02:12:47;;;;;;;19.85;11.03;;;;;;;8.33;60.99;101419.02;1755457;81;25719;-57
2021/04/18 02:15:19;;;;;;;18.50;10.08;;;;;;;8.42;61.30;101418.39;1759560;81;25660;-57
2021/04/18 02:17:47;;;;;;;15.55;8.68;;;;;;;8.53;61.20;101417.66;1755886;80;26093;-57
2021/04/18 02:20:17;;;;;;;12.82;8.63;;;;;;;8.63;61.02;101412.53;1755683;80;27543;-57
2021/04/18 02:22:46;;;;;;;16.00;9.88;;;;;;;8.69;60.76;101412.59;1755599;81;26087;-57
2021/04/18 02:25:15;;;;;;;17.32;11.12;;;;;;;8.73;60.74;101408.70;1755625;80;25552;-57
2021/04/18 02:27:44;;;;;;;19.07;12.07;;;;;;;8.71;60.88;101413.31;1755673;80;25672;-57
2021/04/18 02:30:15;;;;;;;25.12;12.15;;;;;;;8.63;60.90;101410.31;1755774;81;25445;-57
2021/04/18 02:32:45;;;;;;;20.90;11.48;;;;;;;8.58;60.78;101405.27;1755695;81;27536;-56
2021/04/18 02:35:16;;;;;;;19.15;11.45;;;;;;;8.56;60.86;101408.57;1755440;81;26103;-56
2021/04/18 02:37:45;;;;;;;24.40;11.97;;;;;;;8.57;60.81;101410.27;1755742;81;25664;-56
2021/04/18 02:40:15;;;;;;;24.10;12.58;;;;;;;8.54;60.90;101409.16;1757900;80;25810;-56
2021/04/18 02:42:46;;;;;;;16.62;12.00;;;;;;;8.48;61.07;101410.44;1740752;80;26155;-56
2021/04/18 02:45:16;;;;;;;24.45;13.75;;;;;;;8.41;61.16;101407.78;1755714;80;28473;-56
2021/04/18 02:47:46;;;;;;;22.17;12.95;;;;;;;8.37;61.31;101404.92;1755643;81;26135;-56
2021/04/18 02:50:16;;;;;;;26.25;13.32;;;;;;;8.36;61.51;101403.20;1755620;81;25767;-57
2021/04/18 02:52:44;;;;;;;30.70;13.80;;;;;;;8.34;61.58;101394.43;1755767;81;25549;-56
2021/04/18 02:55:15;;;;;;;19.80;12.75;;;;;;;8.32;61.66;101400.38;1791185;79;26213;-56
2021/04/18 02:57:45;;;;;;;22.73;13.15;;;;;;;8.30;61.50;101399.99;1726439;82;27647;-58
2021/04/18 03:00:15;;;;;;;18.82;13.22;;;;;;;8.28;61.46;101403.75;1758654;81;26117;-57
2021/04/18 03:02:43;;;;;;;25.62;13.85;;;;;;;8.26;61.52;101402.49;1796713;79;25706;-56
2021/04/18 03:05:14;;;;;;;23.00;12.50;;;;;;;8.22;61.78;101409.52;1796849;79;26547;-56
2021/04/18 03:07:44;;;;;;;23.27;14.28;;;;;;;8.18;61.80;101404.84;1728748;82;26281;-56
2021/04/18 03:10:13;;;;;;;23.98;14.98;;;;;;;8.17;61.74;101413.00;1774067;79;27507;-56
2021/04/18 03:12:41;;;;;;;26.40;12.65;;;;;;;8.13;61.87;101413.20;1793850;79;25508;-58
2021/04/18 03:15:12;;;;;;;20.60;13.10;;;;;;;8.13;61.92;101411.02;1721293;82;26187;-56
2021/04/18 03:17:42;;;;;;;20.88;13.38;;;;;;;8.11;61.82;101417.80;1721217;83;25764;-56
2021/04/18 03:20:13;;;;;;;20.82;12.45;;;;;;;8.11;62.24;101418.30;1751181;81;25445;-56
2021/04/18 03:22:43;;;;;;;18.30;12.93;;;;;;;8.09;62.66;101423.77;1721326;83;27538;-56
2021/04/18 03:25:14;;;;;;;20.00;11.85;;;;;;;8.04;62.58;101428.56;1721305;82;25792;-56
2021/04/18 03:27:43;;;;;;;26.23;12.28;;;;;;;7.99;62.64;101419.98;1721432;83;25664;-56
2021/04/18 03:30:15;;;;;;;27.60;12.05;;;;;;;8.01;62.82;101425.23;1721236;82;25672;-56
2021/04/18 03:32:45;;;;;;;19.95;11.40;;;;;;;8.03;62.75;101420.64;1720776;83;26183;-56
2021/04/18 03:35:15;;;;;;;20.30;12.75;;;;;;;8.05;62.84;101422.24;1721544;82;27104;-56
2021/04/18 03:37:46;;;;;;;22.90;11.68;;;;;;;7.98;62.55;101422.28;1721346;83;25653;-56
2021/04/18 03:40:14;;;;;;;16.02;11.68;;;;;;;7.98;62.75;101426.30;1713009;82;25720;-56
2021/04/18 03:42:44;;;;;;;19.98;11.55;;;;;;;8.00;62.84;101429.75;1677349;84;26449;-56
2021/04/18 03:45:15;;;;;;;23.20;12.25;;;;;;;7.97;62.67;101429.48;1727324;83;25691;-56
2021/04/18 03:47:44;;;;;;;19.05;10.78;;;;;;;7.99;62.70;101426.19;1697703;83;27534;-56
2021/04/18 03:50:14;;;;;;;15.68;10.80;;;;;;;8.05;62.61;101428.09;1713986;83;25713;-56
2021/04/18 03:52:55;;;;;;;20.02;12.18;;;;;;;8.07;62.36;101435.56;1725342;82;25656;-56
2021/04/18 03:55:25;;;;;;;19.45;12.10;;;;;;;8.11;62.14;101441.92;1674160;82;25662;-56
2021/04/18 03:57:55;;;;;;;23.52;13.05;;;;;;;8.10;61.74;101443.37;1735048;81;25629;-56
2021/04/18 04:00:24;;;;;;;22.60;11.68;;;;;;;8.07;61.53;101448.47;1735074;82;28531;-57
2021/04/18 04:02:56;;;;;;;17.02;11.68;;;;;;;8.06;61.42;101450.77;1741606;81;34710;-56
2021/04/18 04:05:25;;;;;;;23.15;12.60;;;;;;;8.04;61.30;101463.39;1688921;83;25755;-57
2021/04/18 04:07:55;;;;;;;28.47;12.88;;;;;;;8.02;61.15;101464.00;1685099;83;26418;-56
2021/04/18 04:10:25;;;;;;;22.58;11.65;;;;;;;7.98;60.96;101462.48;1714374;83;25837;-56
2021/04/18 04:12:53;;;;;;;17.62;11.65;;;;;;;7.92;60.89;101460.22;1696246;83;27337;-56
2021/04/18 04:15:21;;;;;;;20.72;12.30;;;;;;;7.89;60.89;101468.45;1704998;84;25682;-56
2021/04/18 04:17:51;;;;;;;25.17;12.70;;;;;;;7.83;60.79;101468.37;1711312;83;25436;-56
2021/04/18 04:20:21;;;;;;;17.45;11.05;;;;;;;7.81;60.75;101467.60;1722861;83;25713;-56
2021/04/18 04:23:00;;;;;;;18.10;11.75;;;;;;;7.76;60.84;101470.58;1710145;82;25772;-56
2021/04/18 04:25:29;;;;;;;17.48;11.90;;;;;;;7.72;60.89;101469.08;1711349;82;28561;-56
2021/04/18 04:27:58;;;;;;;18.48;12.73;;;;;;;7.71;60.99;101470.03;1711174;83;25737;-56
2021/04/18 04:30:27;;;;;;;24.00;12.50;;;;;;;7.70;61.07;101472.33;1711357;82;25676;-56
2021/04/18 04:32:55;;;;;;;23.50;12.70;;;;;;;7.67;60.98;101478.75;1711133;83;25696;-56
2021/04/18 04:35:23;;;;;;;21.30;13.58;;;;;;;7.66;61.00;101473.02;1711152;83;26280;-56
2021/04/18 04:37:51;;;;;;;21.33;12.13;;;;;;;7.65;61.05;101477.98;1711889;82;28307;-56
2021/04/18 04:40:19;;;;;;;20.65;12.82;;;;;;;7.65;61.09;101473.13;1711328;82;26184;-56
2021/04/18 04:42:49;;;;;;;19.98;13.15;;;;;;;7.62;61.94;101473.31;1687723;84;25610;-56
2021/04/18 04:45:18;;;;;;;16.07;11.53;;;;;;;7.53;61.57;101470.73;1702117;84;25734;-56
2021/04/18 04:47:46;;;;;;;18.17;12.75;;;;;;;7.51;62.58;101472.68;1702016;84;25733;-56
2021/04/18 04:50:15;;;;;;;19.45;12.40;;;;;;;7.51;62.53;101468.17;1701924;84;28449;-56
2021/04/18 04:52:43;;;;;;;24.00;12.43;;;;;;;7.57;62.47;101470.09;1701565;84;26169;-56
2021/04/18 04:55:14;;;;;;;18.35;11.60;;;;;;;7.64;62.45;101471.41;1699375;83;25745;-57
2021/04/18 04:57:43;;;;;;;20.92;11.75;;;;;;;7.71;62.56;101463.84;1700482;84;25735;-57
2021/04/18 05:00:13;;;;;;;21.07;12.23;;;;;;;7.76;63.52;101457.19;1701047;83;25710;-57
2021/04/18 05:02:41;;;;;;;24.02;11.53;;;;;;;7.79;63.12;101455.66;1701813;83;27536;-57
2021/04/18 05:05:11;;;;;;;18.80;11.60;;;;;;;7.90;63.33;101454.09;1700702;83;25755;-57
2021/04/18 05:07:39;;;;;;;18.67;11.05;;;;;;;8.04;63.16;101449.16;1701364;84;25633;-57
2021/04/18 05:10:08;;;;;;;23.67;11.55;;;;;;;8.18;62.82;101446.39;1701994;83;26420;-57
2021/04/18 05:12:36;;;;;;;24.05;11.65;;;;;;;8.33;62.70;101446.33;1688763;84;25690;-57
2021/04/18 05:15:08;;;;;;;20.12;11.48;;;;;;;8.47;62.35;101450.28;1702004;84;28949;-57
2021/04/18 05:17:37;;;;;;;20.15;11.30;;;;;;;8.59;62.09;101440.05;1688746;84;25501;-58
2021/04/18 05:20:07;;;;;;;25.60;11.12;;;;;;;8.68;61.66;101437.69;1689006;84;25686;-57
2021/04/18 05:22:35;;;;;;;19.40;10.45;;;;;;;8.70;61.06;101442.44;1688974;84;25710;-57
2021/04/18 05:25:05;;;;;;;22.48;12.55;;;;;;;8.67;60.83;101439.50;1701840;84;25769;-57
2021/04/18 05:27:34;;;;;;;20.43;11.22;;;;;;;8.71;60.87;101446.38;1688705;84;27607;-57
2021/04/18 05:30:04;;;;;;;19.05;11.00;;;;;;;8.75;60.64;101441.16;1702000;82;25481;-57
2021/04/18 05:32:34;;;;;;;17.70;9.88;;;;;;;8.81;60.36;101439.03;1688910;84;25950;-57
2021/04/18 05:35:03;;;;;;;22.42;10.72;;;;;;;8.87;60.13;101438.58;1686642;84;25741;-57
2021/04/18 05:37:32;;;;;;;20.15;10.72;;;;;;;8.94;59.80;101439.86;1686686;85;25768;-57
2021/04/18 05:40:00;;;;;;;19.42;10.63;;;;;;;9.04;59.67;101438.23;1740642;81;27641;-57
2021/04/18 05:42:28;;;;;;;16.73;10.70;;;;;;;9.14;59.42;101440.27;1696080;83;26340;-57
2021/04/18 05:44:57;;;;;;;19.80;10.32;;;;;;;9.18;59.18;101439.94;1727232;83;25606;-57
2021/04/18 05:47:26;;;;;;;20.02;10.75;;;;;;;9.26;58.99;101435.36;1718440;82;25667;-57
2021/04/18 05:49:54;;;;;;;17.57;10.03;;;;;;;9.33;58.61;101431.25;1728474;82;25656;-57
2021/04/18 05:52:22;;;;;;;16.10;9.83;;;;;;;9.38;58.50;101431.77;1718948;83;27537;-57
2021/04/18 05:54:52;;;;;;;27.65;9.80;;;;;;;9.44;58.45;101429.62;1703280;83;25786;-57
2021/04/18 05:57:21;;;;;;;16.05;9.98;;;;;;;9.47;58.26;101432.93;1693753;84;25780;-57
2021/04/18 05:59:49;;;;;;;17.17;9.95;;;;;;;9.53;58.28;101437.84;1693611;82;25714;-57
2021/04/18 06:02:17;;;;;;;18.65;10.32;;;;;;;9.60;58.12;101438.72;1693857;83;25727;-56
2021/04/18 06:04:45;;;;;;;19.50;10.98;;;;;;;9.66;58.04;101428.89;1693718;83;28640;-57
2021/04/18 06:07:14;;;;;;;16.25;10.72;;;;;;;9.76;58.09;101433.95;1693743;83;25670;-57
2021/04/18 06:09:42;;;;;;;21.05;10.20;;;;;;;9.85;57.95;101433.73;1693885;83;25735;-57
2021/04/18 06:12:12;;;;;;;15.20;10.08;;;;;;;9.90;57.60;101424.86;1693671;83;26421;-57
2021/04/18 06:14:40;;;;;;;17.23;10.93;;;;;;;9.95;57.60;101430.73;1694216;82;25732;-57
2021/04/18 06:17:08;;;;;;;19.70;9.78;;;;;;;10.01;57.43;101430.75;1690783;83;27611;-57
2021/04/18 06:19:37;;;;;;;27.22;12.00;;;;;;;10.07;57.25;101433.47;1706637;83;25688;-57
2021/04/18 06:22:05;;;;;;;19.52;10.15;;;;;;;10.12;57.25;101430.80;1717031;82;25657;-57
2021/04/18 06:24:33;;;;;;;24.32;9.88;;;;;;;10.20;57.12;101428.85;1719065;82;26472;-58
2021/04/18 06:27:01;;;;;;;21.48;10.55;;;;;;;10.25;56.98;101429.38;1720917;82;26098;-57
2021/04/18 06:29:29;;;;;;;15.38;8.95;;;;;;;10.35;56.88;101432.20;1728716;82;27542;-58
2021/04/18 06:31:57;;;;;;;16.62;9.53;;;;;;;10.48;56.53;101426.28;1721212;83;25688;-57
2021/04/18 06:34:26;;;;;;;17.50;9.60;;;;;;;10.60;56.09;101424.93;1728645;82;25706;-57
2021/04/18 06:36:54;;;;;;;28.92;10.85;;;;;;;10.69;56.16;101427.41;1721395;83;25732;-57
2021/04/18 06:39:23;;;;;;;19.32;9.55;;;;;;;10.73;56.00;101423.00;1731874;82;26150;-58
2021/04/18 06:42:05;;;;;;;21.00;8.55;;;;;;;10.79;55.86;101424.36;1685906;84;27957;-59
2021/04/18 06:44:34;;;;;;;16.80;8.45;;;;;;;10.87;55.74;101421.03;1679768;84;25617;-57
2021/04/18 06:47:02;;;;;;;20.68;10.30;;;;;;;10.96;55.56;101419.83;1730281;82;25470;-57
2021/04/18 06:49:32;;;;;;;19.37;8.50;;;;;;;11.07;55.44;101427.54;1694548;84;25548;-57
2021/04/18 06:52:00;;;;;;;20.62;8.55;;;;;;;11.14;55.06;101420.67;1694128;83;25730;-57
2021/04/18 06:54:28;;;;;;;17.27;8.85;;;;;;;11.19;54.93;101428.38;1723271;81;27546;-57
2021/04/18 06:56:56;;;;;;;18.75;8.73;;;;;;;11.22;54.62;101422.73;1747990;81;25742;-57
2021/04/18 06:59:25;;;;;;;14.38;8.10;;;;;;;11.26;54.56;101425.55;1738884;80;25700;-61
2021/04/18 07:01:55;;;;;;;16.75;8.60;;;;;;;11.38;54.51;101423.69;1730021;82;25974;-59
2021/04/18 07:04:27;;;;;;;15.55;7.97;;;;;;;11.50;54.10;101421.82;1730382;82;25694;-56
2021/04/18 07:06:57;;;;;;;19.80;8.58;;;;;;;11.65;53.82;101423.74;1730451;82;28455;-59
2021/04/18 07:09:26;;;;;;;18.12;8.18;;;;;;;11.72;53.64;101428.51;1730195;82;26137;-57
2021/04/18 07:12:02;;;;;;;16.00;7.83;;;;;;;11.84;53.30;101425.75;1733837;79;25659;-58
2021/04/18 07:14:37;;;;;;;18.30;8.28;;;;;;;11.95;52.92;101416.27;1718781;83;25678;-57
2021/04/18 07:17:13;;;;;;;17.37;7.95;;;;;;;12.05;52.60;101413.70;1718908;83;26150;-61
2021/04/18 07:19:50;;;;;;;32.25;8.40;;;;;;;12.17;52.49;101413.98;1786775;79;28387;-56
2021/04/18 07:22:23;;;;;;;;;;;;;;;12.25;51.90;101409.78;1788940;79;25661;-56
2021/04/18 07:24:55;;;;;;;16.40;6.50;;;;;;;12.31;50.95;101406.57;1776720;79;25714;-58
2021/04/18 07:27:24;;;;;;;31.57;7.17;;;;;;;12.34;51.48;101403.59;1740850;81;25711;-61
2021/04/18 07:29:59;;;;;;;23.38;7.65;;;;;;;12.41;51.16;101406.14;1760300;81;25724;-62
2021/04/18 07:32:32;;;;;;;11.30;5.65;;;;;;;12.42;51.13;101403.78;1760400;80;27620;-58
2021/04/18 07:35:01;;;;;;;15.48;5.70;;;;;;;12.43;50.62;101397.40;1760436;81;26081;-59
2021/04/18 07:37:32;;;;;;;9.53;5.83;;;;;;;12.49;50.30;101398.23;1760630;80;25792;-59
2021/04/18 07:40:05;;;;;;;15.98;5.55;;;;;;;12.52;50.40;101393.91;1743651;80;25884;-61
2021/04/18 07:42:43;;;;;;;10.72;5.55;;;;;;;12.58;49.42;101392.52;1756939;80;26259;-58
2021/04/18 07:45:20;;;;;;;16.70;5.85;;;;;;;12.61;49.33;101384.64;1759408;81;27519;-57
2021/04/18 07:47:48;;;;;;;40.50;6.22;;;;;;;12.66;48.78;101381.90;1758572;80;25769;-58
2021/04/18 07:50:21;;;;;;;13.35;5.60;;;;;;;12.70;48.61;101374.38;1761101;79;25656;-58
2021/04/18 07:52:50;;;;;;;8.68;5.30;;;;;;;12.76;48.83;101378.39;1755647;80;25619;-57
2021/04/18 07:55:21;;;;;;;10.70;5.10;;;;;;;12.85;48.28;101374.88;1754329;80;25826;-58
2021/04/18 07:57:51;;;;;;;10.43;5.30;;;;;;;12.95;47.91;101375.77;1758960;81;28423;-58
2021/04/18 08:00:22;;;;;;;11.63;5.25;;;;;;;13.07;48.04;101375.67;1755184;80;25774;-58
2021/04/18 08:02:53;;;;;;;10.90;5.22;;;;;;;13.21;47.32;101368.52;1756224;81;25762;-58
2021/04/18 08:05:26;;;;;;;11.73;5.67;;;;;;;13.39;47.38;101363.33;1753687;80;25754;-58
2021/04/18 08:08:14;;;;;;;11.10;5.75;;;;;;;13.56;46.87;101367.68;1770532;79;25511;-57
2021/04/18 08:10:47;;;;;;;11.53;5.10;;;;;;;13.73;46.30;101363.40;1769209;81;27310;-58
2021/04/18 08:13:39;;;;;;;35.95;7.10;;;;;;;13.91;45.31;101355.44;1771418;80;25742;-58
2021/04/18 08:16:10;;;;;;;16.73;6.72;;;;;;;14.06;45.58;101357.20;1772787;80;25690;-57
2021/04/18 08:18:47;;;;;;;20.43;5.67;;;;;;;14.22;44.96;101356.09;1763863;80;25592;-57
2021/04/18 08:21:37;;;;;;;14.20;5.92;;;;;;;14.38;45.09;101350.56;1754160;80;25753;-58
2021/04/18 08:24:18;;;;;;;15.68;5.78;;;;;;;14.56;44.59;101339.31;1683664;83;28884;-58
2021/04/18 08:27:09;;;;;;;17.95;6.55;;;;;;;14.74;43.85;101344.50;1698342;84;25727;-58
2021/04/18 08:30:05;;;;;;;13.95;5.58;;;;;;;14.83;43.56;101342.24;1699481;84;25680;-58
2021/04/18 08:32:48;;;;;;;13.60;5.83;;;;;;;14.90;44.10;101335.22;1695287;84;26005;-58
2021/04/18 08:35:20;;;;;;;23.52;5.05;;;;;;;15.07;43.60;101343.02;1692565;84;26146;-56
2021/04/18 08:38:15;;;;;;;19.95;5.55;;;;;;;15.21;41.98;101337.58;1687105;84;28516;-57
2021/04/18 08:40:45;;;;;;;16.10;6.28;;;;;;;15.29;42.21;101350.38;1712609;82;26115;-59
2021/04/18 08:43:25;;;;;;;17.50;5.72;;;;;;;15.27;41.70;101341.05;1694459;83;25822;-63
2021/04/18 08:45:55;;;;;;;11.38;4.70;;;;;;;15.33;41.96;101339.56;1668107;84;26492;-59
2021/04/18 08:48:26;;;;;;;10.00;4.62;;;;;;;15.52;41.99;101335.87;1689601;84;26119;-61
2021/04/18 08:51:08;;;;;;;8.98;3.83;;;;;;;15.70;40.89;101325.00;1675063;84;27280;-57
2021/04/18 08:54:00;;;;;;;9.63;3.90;;;;;;;15.93;40.91;101328.62;1720806;80;25447;-57
2021/04/18 08:56:58;;;;;;;8.68;3.90;;;;;;;16.19;40.36;101320.99;1735707;82;25899;-59
2021/04/18 08:59:23;;;;;;;7.10;3.90;;;;;;;16.57;40.55;101316.96;1725023;82;26656;-61
2021/04/18 09:02:13;;;;;;;5.95;3.85;;;;;;;16.86;39.25;101311.65;1720166;81;25914;-58
2021/04/18 09:04:43;;;;;;;7.40;3.75;;;;;;;17.16;37.44;101308.53;1732898;82;27785;-58
2021/04/18 09:07:15;;;;;;;7.78;3.35;;;;;;;17.24;37.49;101309.07;1743827;81;25778;-59
2021/04/18 09:09:44;;;;;;;5.28;3.00;;;;;;;17.30;37.99;101303.79;1746038;80;25766;-61
2021/04/18 09:12:18;;;;;;;5.47;2.85;;;;;;;17.60;36.44;101300.08;1740794;80;25680;-62
2021/04/18 09:14:50;;;;;;;7.20;3.55;;;;;;;17.72;37.51;101296.51;1716647;82;25732;-61
2021/04/18 09:17:32;;;;;;;4.35;2.47;;;;;;;17.82;35.48;101296.35;1716449;83;28425;-59
2021/04/18 09:20:18;;;;;;;8.28;3.85;;;;;;;17.72;35.53;101296.51;1716146;83;26422;-59
2021/04/18 09:22:51;;;;;;;6.80;2.85;;;;;;;17.76;36.35;101292.44;1728759;82;25817;-59
2021/04/18 09:25:21;;;;;;;6.83;3.70;;;;;;;17.88;36.13;101296.17;1745531;81;25734;-56
2021/04/18 09:27:52;;;;;;;6.70;4.00;;;;;;;17.93;35.27;101286.97;1746263;80;25712;-58
2021/04/18 09:30:26;;;;;;;11.57;3.33;;;;;;;18.06;34.69;101283.26;1746217;82;27599;-58
2021/04/18 09:32:55;;;;;;;;;;;;;;;18.21;34.75;101281.17;1746731;80;25574;-58
2021/04/18 09:35:25;;;;;;;13.75;3.37;;;;;;;18.37;34.02;101278.39;1723383;82;25687;-58
2021/04/18 09:37:59;;;;;;;4.75;2.90;;;;;;;19.01;33.70;101286.98;1746181;80;26263;-58
2021/04/18 09:40:33;;;;;;;7.37;2.87;;;;;;;19.41;33.08;101275.14;1745585;82;26266;-59
2021/04/18 09:43:05;;;;;;;2.83;2.60;;;;;;;19.71;32.08;101267.89;1755549;80;32870;-59
2021/04/18 09:45:34;;;;;;;7.40;2.75;;;;;;;20.18;31.58;101271.37;1780080;79;25595;-59
2021/04/18 09:48:20;;;;;;;4.67;2.55;;;;;;;20.21;28.97;101262.81;1799396;78;25687;-58
2021/04/18 09:51:03;;;;;;;8.90;2.50;;;;;;;19.70;29.21;101269.75;1746651;81;25676;-56
2021/04/18 09:53:31;;;;;;;9.55;2.47;;;;;;;19.26;31.03;101266.89;1753440;80;25737;-56
2021/04/18 09:56:05;;;;;;;2.65;2.15;;;;;;;19.03;30.76;101264.48;1734707;82;28425;-58
2021/04/18 09:58:37;;;;;;;3.00;1.82;;;;;;;18.92;30.86;101266.22;1775491;79;25693;-58
2021/04/18 10:01:28;;;;;;;5.30;2.40;;;;;;;18.85;31.52;101259.27;1804019;79;25781;-57
2021/04/18 10:03:57;;;;;;;5.05;2.17;;;;;;;18.86;31.39;101260.14;1752478;80;26431;-58
2021/04/18 10:06:32;;;;;;;10.63;2.40;;;;;;;18.97;30.54;101254.81;1733171;82;26056;-57
2021/04/18 10:09:02;;;;;;;6.50;2.35;;;;;;;18.95;30.30;101247.32;1730935;82;28294;-58
2021/04/18 10:11:30;;;;;;;6.55;2.25;;;;;;;19.02;30.35;101253.25;1733062;81;25669;-56
2021/04/18 10:14:00;;;;;;;10.93;2.40;;;;;;;19.06;30.03;101245.55;1733952;81;25971;-57
2021/04/18 10:16:38;;;;;;;3.95;2.02;;;;;;;19.30;29.16;101245.89;1750570;79;26486;-56
2021/04/18 10:19:17;;;;;;;11.28;2.58;;;;;;;19.60;29.56;101238.31;1797903;79;25681;-57
2021/04/18 10:22:07;;;;;;;7.03;2.02;;;;;;;19.89;30.35;101234.80;1798067;79;27613;-57
2021/04/18 10:24:50;;;;;;;2.70;2.10;;;;;;;20.25;28.79;101238.16;1745755;79;25667;-57
2021/04/18 10:27:30;;;;;;;11.55;2.70;;;;;;;19.94;28.39;101235.11;1754204;81;25741;-57
2021/04/18 10:30:05;;;;;;;3.83;2.40;;;;;;;19.92;28.96;101233.58;1740033;81;26681;-58
2021/04/18 10:32:33;;;;;;;3.42;2.30;;;;;;;19.97;27.61;101236.08;1749276;80;26124;-58
2021/04/18 10:35:01;;;;;;;4.80;2.37;;;;;;;19.92;28.37;101231.72;1730428;82;27512;-58
2021/04/18 10:37:30;;;;;;;2.05;1.70;;;;;;;20.09;27.57;101226.90;1733887;81;26737;-58
2021/04/18 10:39:58;;;;;;;8.58;2.70;;;;;;;20.06;28.60;101231.39;1734747;81;25622;-59
2021/04/18 10:42:26;;;;;;;4.97;2.00;;;;;;;20.05;28.60;101233.79;1737745;80;25733;-58
2021/04/18 10:44:55;;;;;;;2.80;2.10;;;;;;;19.99;28.02;101231.28;1753066;80;25711;-57
2021/04/18 10:47:24;;;;;;;4.55;2.67;;;;;;;19.77;27.66;101234.39;1751099;81;27527;-57
2021/04/18 10:49:52;;;;;;;2.58;2.08;;;;;;;19.75;28.28;101237.81;1750694;80;26142;-58
2021/04/18 10:52:21;;;;;;;7.67;2.77;;;;;;;19.76;28.05;101236.78;1751646;80;25740;-57
2021/04/18 10:54:49;;;;;;;4.85;2.70;;;;;;;19.63;27.73;101242.05;1747570;81;26404;-59
2021/04/18 10:57:18;;;;;;;7.90;2.20;;;;;;;19.50;28.72;101235.81;1746010;80;25613;-59
2021/04/18 10:59:46;;;;;;;8.13;2.00;;;;;;;19.35;28.60;101239.36;1746130;82;27530;-60
2021/04/18 11:02:14;;;;;;;7.05;2.12;;;;;;;19.08;28.76;101242.13;1746230;80;25867;-57
2021/04/18 11:04:42;;;;;;;5.28;2.00;;;;;;;18.88;29.47;101240.34;1746392;82;25727;-57
2021/04/18 11:07:10;;;;;;;5.58;2.25;;;;;;;18.75;29.45;101241.79;1746318;80;26442;-59
2021/04/18 11:09:39;;;;;;;5.60;2.12;;;;;;;18.45;30.49;101238.86;1746185;82;26102;-58
2021/04/18 11:12:19;;;;;;;6.85;3.27;;;;;;;18.10;31.17;101241.56;1747412;80;27680;-57
2021/04/18 11:14:48;;;;;;;2.65;2.30;;;;;;;17.70;32.22;101243.29;1751125;80;25714;-57
2021/04/18 11:17:17;;;;;;;12.70;7.53;;;;;;;17.47;33.25;101241.28;1751264;80;25528;-57
2021/04/18 11:19:45;;;;;;;5.40;2.70;;;;;;;17.19;33.68;101241.08;1751148;81;26008;-57
2021/04/18 11:22:13;;;;;;;5.03;2.50;;;;;;;16.99;33.93;101240.55;1751319;80;25751;-57
2021/04/18 11:24:42;;;;;;;6.35;2.50;;;;;;;16.78;33.60;101240.98;1751193;81;28466;-57
2021/04/18 11:27:10;;;;;;;3.42;2.37;;;;;;;16.63;34.50;101239.93;1751168;81;25850;-58
2021/04/18 11:29:42;;;;;;;7.33;2.55;;;;;;;16.55;34.36;101236.14;1751031;81;25689;-58
2021/04/18 11:32:11;;;;;;;8.55;3.25;;;;;;;16.50;34.86;101236.29;1751364;81;26353;-57
2021/04/18 11:34:40;;;;;;;5.40;3.20;;;;;;;16.33;35.42;101244.38;1751210;81;25664;-57
2021/04/18 11:37:10;;;;;;;4.83;3.27;;;;;;;16.23;35.71;101246.35;1751217;80;27516;-58
2021/04/18 11:39:40;;;;;;;5.03;2.60;;;;;;;16.09;35.59;101243.77;1749141;80;26113;-58